sensor_id;sensor_type;location;lat;lon;timestamp;P1;durP1;ratioP1;P2;durP2;ratioP2
10154;SDS011;5118;48.570;7.916;2022-11-15T00:00:55;11.43;;;10.33;;
10154;SDS011;5118;48.570;7.916;2022-11-15T00:03:42;11.70;;;10.50;;
10154;SDS011;5118;48.570;7.916;2022-11-15T00:06:30;14.17;;;11.23;;
10154;SDS011;5118;48.570;7.916;2022-11-15T00:09:17;11.40;;;10.13;;
10154;SDS011;5118;48.570;7.916;2022-11-15T00:12:05;11.90;;;10.73;;
10154;SDS011;5118;48.570;7.916;2022-11-15T00:14:53;12.07;;;10.97;;
10154;SDS011;5118;48.570;7.916;2022-11-15T00:17:40;10.87;;;9.87;;
10154;SDS011;5118;48.570;7.916;2022-11-15T00:20:27;11.43;;;10.20;;
10154;SDS011;5118;48.570;7.916;2022-11-15T00:23:14;10.47;;;9.47;;
10154;SDS011;5118;48.570;7.916;2022-11-15T00:26:01;10.07;;;9.17;;
10154;SDS011;5118;48.570;7.916;2022-11-15T00:28:48;11.00;;;9.47;;
10154;SDS011;5118;48.570;7.916;2022-11-15T00:31:38;10.63;;;9.33;;
10154;SDS011;5118;48.570;7.916;2022-11-15T00:34:25;11.13;;;9.47;;
10154;SDS011;5118;48.570;7.916;2022-11-15T00:37:12;9.80;;;8.87;;
10154;SDS011;5118;48.570;7.916;2022-11-15T00:39:59;11.03;;;9.00;;
10154;SDS011;5118;48.570;7.916;2022-11-15T00:42:46;11.80;;;8.97;;
10154;SDS011;5118;48.570;7.916;2022-11-15T00:45:35;10.30;;;9.00;;
10154;SDS011;5118;48.570;7.916;2022-11-15T00:48:24;10.97;;;8.60;;
10154;SDS011;5118;48.570;7.916;2022-11-15T00:51:10;10.60;;;9.17;;
10154;SDS011;5118;48.570;7.916;2022-11-15T00:53:57;10.93;;;8.67;;
10154;SDS011;5118;48.570;7.916;2022-11-15T00:56:44;9.83;;;8.83;;
10154;SDS011;5118;48.570;7.916;2022-11-15T00:59:31;11.87;;;8.87;;
10154;SDS011;5118;48.570;7.916;2022-11-15T01:02:17;10.00;;;8.90;;
10154;SDS011;5118;48.570;7.916;2022-11-15T01:05:07;10.60;;;9.50;;
10154;SDS011;5118;48.570;7.916;2022-11-15T01:07:55;10.67;;;9.33;;
10154;SDS011;5118;48.570;7.916;2022-11-15T01:10:42;10.50;;;9.43;;
10154;SDS011;5118;48.570;7.916;2022-11-15T01:13:31;10.87;;;9.63;;
10154;SDS011;5118;48.570;7.916;2022-11-15T01:16:18;9.20;;;8.30;;
10154;SDS011;5118;48.570;7.916;2022-11-15T01:19:05;11.63;;;9.93;;
10154;SDS011;5118;48.570;7.916;2022-11-15T01:21:53;9.00;;;8.10;;
10154;SDS011;5118;48.570;7.916;2022-11-15T01:24:40;9.60;;;8.60;;
10154;SDS011;5118;48.570;7.916;2022-11-15T01:27:27;9.83;;;8.83;;
10154;SDS011;5118;48.570;7.916;2022-11-15T01:30:14;10.03;;;9.03;;
10154;SDS011;5118;48.570;7.916;2022-11-15T01:33:02;9.53;;;8.63;;
10154;SDS011;5118;48.570;7.916;2022-11-15T01:35:49;11.30;;;8.97;;
10154;SDS011;5118;48.570;7.916;2022-11-15T01:38:37;9.87;;;8.90;;
10154;SDS011;5118;48.570;7.916;2022-11-15T01:41:24;10.53;;;9.27;;
10154;SDS011;5118;48.570;7.916;2022-11-15T01:44:31;11.10;;;8.90;;
10154;SDS011;5118;48.570;7.916;2022-11-15T01:47:25;11.50;;;8.83;;
10154;SDS011;5118;48.570;7.916;2022-11-15T01:50:16;10.10;;;9.07;;
10154;SDS011;5118;48.570;7.916;2022-11-15T01:53:06;10.40;;;9.30;;
10154;SDS011;5118;48.570;7.916;2022-11-15T01:55:54;10.77;;;9.77;;
10154;SDS011;5118;48.570;7.916;2022-11-15T01:58:42;10.57;;;9.33;;
10154;SDS011;5118;48.570;7.916;2022-11-15T02:01:31;9.97;;;9.03;;
10154;SDS011;5118;48.570;7.916;2022-11-15T02:04:20;10.03;;;9.03;;
10154;SDS011;5118;48.570;7.916;2022-11-15T02:07:12;10.70;;;9.57;;
10154;SDS011;5118;48.570;7.916;2022-11-15T02:10:04;9.43;;;8.30;;
10154;SDS011;5118;48.570;7.916;2022-11-15T02:12:55;9.03;;;8.13;;
10154;SDS011;5118;48.570;7.916;2022-11-15T02:15:48;7.97;;;7.17;;
10154;SDS011;5118;48.570;7.916;2022-11-15T02:18:48;10.80;;;6.80;;
10154;SDS011;5118;48.570;7.916;2022-11-15T02:21:39;8.50;;;6.97;;
10154;SDS011;5118;48.570;7.916;2022-11-15T02:28:02;8.27;;;6.80;;
10154;SDS011;5118;48.570;7.916;2022-11-15T02:31:04;7.93;;;6.90;;
10154;SDS011;5118;48.570;7.916;2022-11-15T02:34:01;8.73;;;7.80;;
10154;SDS011;5118;48.570;7.916;2022-11-15T02:36:56;8.93;;;7.63;;
10154;SDS011;5118;48.570;7.916;2022-11-15T02:39:50;10.33;;;7.73;;
10154;SDS011;5118;48.570;7.916;2022-11-15T02:42:43;9.10;;;8.20;;
10154;SDS011;5118;48.570;7.916;2022-11-15T02:45:53;10.23;;;8.10;;
10154;SDS011;5118;48.570;7.916;2022-11-15T02:48:49;8.83;;;7.47;;
10154;SDS011;5118;48.570;7.916;2022-11-15T02:51:37;8.87;;;7.50;;
10154;SDS011;5118;48.570;7.916;2022-11-15T02:54:26;9.67;;;7.73;;
10154;SDS011;5118;48.570;7.916;2022-11-15T02:57:17;7.97;;;7.17;;
10154;SDS011;5118;48.570;7.916;2022-11-15T03:00:09;8.47;;;6.43;;
10154;SDS011;5118;48.570;7.916;2022-11-15T03:03:03;6.80;;;6.13;;
10154;SDS011;5118;48.570;7.916;2022-11-15T03:06:03;5.90;;;5.30;;
10154;SDS011;5118;48.570;7.916;2022-11-15T03:09:02;8.10;;;5.50;;
10154;SDS011;5118;48.570;7.916;2022-11-15T03:11:55;7.23;;;5.67;;
10154;SDS011;5118;48.570;7.916;2022-11-15T03:14:47;6.43;;;5.30;;
10154;SDS011;5118;48.570;7.916;2022-11-15T03:17:43;7.97;;;5.43;;
10154;SDS011;5118;48.570;7.916;2022-11-15T03:20:35;7.63;;;5.53;;
10154;SDS011;5118;48.570;7.916;2022-11-15T03:23:24;7.30;;;5.73;;
10154;SDS011;5118;48.570;7.916;2022-11-15T03:26:13;7.70;;;5.30;;
10154;SDS011;5118;48.570;7.916;2022-11-15T03:29:03;6.90;;;5.63;;
10154;SDS011;5118;48.570;7.916;2022-11-15T03:31:55;6.60;;;5.67;;
10154;SDS011;5118;48.570;7.916;2022-11-15T03:34:47;6.77;;;5.47;;
10154;SDS011;5118;48.570;7.916;2022-11-15T03:37:39;6.53;;;5.13;;
10154;SDS011;5118;48.570;7.916;2022-11-15T03:40:33;6.80;;;4.70;;
10154;SDS011;5118;48.570;7.916;2022-11-15T03:43:24;8.80;;;5.20;;
10154;SDS011;5118;48.570;7.916;2022-11-15T03:46:18;6.43;;;5.10;;
10154;SDS011;5118;48.570;7.916;2022-11-15T03:49:09;5.43;;;4.60;;
10154;SDS011;5118;48.570;7.916;2022-11-15T03:51:59;5.37;;;4.87;;
10154;SDS011;5118;48.570;7.916;2022-11-15T03:54:52;7.33;;;4.70;;
10154;SDS011;5118;48.570;7.916;2022-11-15T03:57:42;5.03;;;4.53;;
10154;SDS011;5118;48.570;7.916;2022-11-15T04:00:29;7.00;;;4.70;;
10154;SDS011;5118;48.570;7.916;2022-11-15T04:03:16;5.00;;;4.50;;
10154;SDS011;5118;48.570;7.916;2022-11-15T04:06:03;5.80;;;5.07;;
10154;SDS011;5118;48.570;7.916;2022-11-15T04:08:50;5.93;;;4.77;;
10154;SDS011;5118;48.570;7.916;2022-11-15T04:11:36;4.60;;;4.20;;
10154;SDS011;5118;48.570;7.916;2022-11-15T04:14:25;5.17;;;4.30;;
10154;SDS011;5118;48.570;7.916;2022-11-15T04:17:11;4.43;;;4.03;;
10154;SDS011;5118;48.570;7.916;2022-11-15T04:19:58;4.30;;;3.90;;
10154;SDS011;5118;48.570;7.916;2022-11-15T04:23:03;4.67;;;4.00;;
10154;SDS011;5118;48.570;7.916;2022-11-15T04:26:10;4.80;;;3.93;;
10154;SDS011;5118;48.570;7.916;2022-11-15T04:28:58;4.67;;;3.90;;
10154;SDS011;5118;48.570;7.916;2022-11-15T04:32:10;5.60;;;4.43;;
10154;SDS011;5118;48.570;7.916;2022-11-15T04:34:58;5.13;;;4.50;;
10154;SDS011;5118;48.570;7.916;2022-11-15T04:37:45;5.47;;;4.43;;
10154;SDS011;5118;48.570;7.916;2022-11-15T04:40:33;5.83;;;4.03;;
10154;SDS011;5118;48.570;7.916;2022-11-15T04:43:21;4.77;;;4.10;;
10154;SDS011;5118;48.570;7.916;2022-11-15T04:46:07;4.20;;;3.70;;
10154;SDS011;5118;48.570;7.916;2022-11-15T04:48:56;4.63;;;3.90;;
10154;SDS011;5118;48.570;7.916;2022-11-15T04:51:43;4.77;;;4.27;;
10154;SDS011;5118;48.570;7.916;2022-11-15T04:54:31;4.97;;;4.40;;
10154;SDS011;5118;48.570;7.916;2022-11-15T04:57:18;7.03;;;4.60;;
10154;SDS011;5118;48.570;7.916;2022-11-15T05:00:06;5.13;;;4.30;;
10154;SDS011;5118;48.570;7.916;2022-11-15T05:02:54;6.57;;;4.47;;
10154;SDS011;5118;48.570;7.916;2022-11-15T05:06:01;6.53;;;4.30;;
10154;SDS011;5118;48.570;7.916;2022-11-15T05:08:48;7.17;;;4.43;;
10154;SDS011;5118;48.570;7.916;2022-11-15T05:11:36;5.03;;;4.27;;
10154;SDS011;5118;48.570;7.916;2022-11-15T05:14:23;4.93;;;3.97;;
10154;SDS011;5118;48.570;7.916;2022-11-15T05:17:09;6.13;;;4.20;;
10154;SDS011;5118;48.570;7.916;2022-11-15T05:19:57;5.07;;;3.97;;
10154;SDS011;5118;48.570;7.916;2022-11-15T05:22:45;4.60;;;3.77;;
10154;SDS011;5118;48.570;7.916;2022-11-15T05:25:32;5.73;;;4.20;;
10154;SDS011;5118;48.570;7.916;2022-11-15T05:28:19;4.33;;;3.93;;
10154;SDS011;5118;48.570;7.916;2022-11-15T05:31:06;4.60;;;4.10;;
10154;SDS011;5118;48.570;7.916;2022-11-15T05:33:55;5.07;;;3.90;;
10154;SDS011;5118;48.570;7.916;2022-11-15T05:36:44;4.83;;;4.07;;
10154;SDS011;5118;48.570;7.916;2022-11-15T05:39:32;4.60;;;3.90;;
10154;SDS011;5118;48.570;7.916;2022-11-15T05:42:19;7.10;;;4.10;;
10154;SDS011;5118;48.570;7.916;2022-11-15T05:45:06;4.93;;;4.33;;
10154;SDS011;5118;48.570;7.916;2022-11-15T05:47:55;6.90;;;4.50;;
10154;SDS011;5118;48.570;7.916;2022-11-15T05:50:45;4.50;;;4.10;;
10154;SDS011;5118;48.570;7.916;2022-11-15T05:53:33;5.93;;;4.20;;
10154;SDS011;5118;48.570;7.916;2022-11-15T05:56:23;4.93;;;4.33;;
10154;SDS011;5118;48.570;7.916;2022-11-15T05:59:11;7.07;;;5.77;;
10154;SDS011;5118;48.570;7.916;2022-11-15T06:01:58;5.73;;;4.47;;
10154;SDS011;5118;48.570;7.916;2022-11-15T06:04:45;4.93;;;3.90;;
10154;SDS011;5118;48.570;7.916;2022-11-15T06:07:32;5.37;;;4.40;;
10154;SDS011;5118;48.570;7.916;2022-11-15T06:10:19;5.17;;;4.67;;
10154;SDS011;5118;48.570;7.916;2022-11-15T06:13:08;5.80;;;5.20;;
10154;SDS011;5118;48.570;7.916;2022-11-15T06:15:55;5.87;;;4.47;;
10154;SDS011;5118;48.570;7.916;2022-11-15T06:18:42;7.73;;;6.30;;
10154;SDS011;5118;48.570;7.916;2022-11-15T06:21:29;8.50;;;5.50;;
10154;SDS011;5118;48.570;7.916;2022-11-15T06:24:15;6.60;;;5.90;;
10154;SDS011;5118;48.570;7.916;2022-11-15T06:27:02;8.03;;;5.50;;
10154;SDS011;5118;48.570;7.916;2022-11-15T06:29:50;6.23;;;5.30;;
10154;SDS011;5118;48.570;7.916;2022-11-15T06:32:37;6.07;;;5.43;;
10154;SDS011;5118;48.570;7.916;2022-11-15T06:35:24;5.70;;;5.10;;
10154;SDS011;5118;48.570;7.916;2022-11-15T06:38:10;5.83;;;4.80;;
10154;SDS011;5118;48.570;7.916;2022-11-15T06:41:00;6.87;;;5.90;;
10154;SDS011;5118;48.570;7.916;2022-11-15T06:43:48;7.33;;;5.27;;
10154;SDS011;5118;48.570;7.916;2022-11-15T06:46:36;7.47;;;5.10;;
10154;SDS011;5118;48.570;7.916;2022-11-15T06:49:23;7.37;;;5.57;;
10154;SDS011;5118;48.570;7.916;2022-11-15T06:52:10;8.17;;;6.27;;
10154;SDS011;5118;48.570;7.916;2022-11-15T06:54:57;18.10;;;14.07;;
10154;SDS011;5118;48.570;7.916;2022-11-15T06:57:47;34.37;;;29.27;;
10154;SDS011;5118;48.570;7.916;2022-11-15T07:00:34;8.00;;;7.20;;
10154;SDS011;5118;48.570;7.916;2022-11-15T07:03:23;10.00;;;6.67;;
10154;SDS011;5118;48.570;7.916;2022-11-15T07:06:10;6.47;;;4.87;;
10154;SDS011;5118;48.570;7.916;2022-11-15T07:08:57;6.30;;;5.40;;
10154;SDS011;5118;48.570;7.916;2022-11-15T07:11:44;9.00;;;7.00;;
10154;SDS011;5118;48.570;7.916;2022-11-15T07:14:31;8.83;;;8.03;;
10154;SDS011;5118;48.570;7.916;2022-11-15T07:17:17;5.70;;;5.20;;
10154;SDS011;5118;48.570;7.916;2022-11-15T07:20:06;6.23;;;4.90;;
10154;SDS011;5118;48.570;7.916;2022-11-15T07:22:59;5.43;;;4.70;;
10154;SDS011;5118;48.570;7.916;2022-11-15T07:25:46;6.27;;;4.67;;
10154;SDS011;5118;48.570;7.916;2022-11-15T07:28:34;5.70;;;5.13;;
10154;SDS011;5118;48.570;7.916;2022-11-15T07:31:21;5.30;;;4.70;;
10154;SDS011;5118;48.570;7.916;2022-11-15T07:34:08;5.70;;;5.03;;
10154;SDS011;5118;48.570;7.916;2022-11-15T07:36:57;11.63;;;9.63;;
10154;SDS011;5118;48.570;7.916;2022-11-15T07:39:44;24.03;;;21.07;;
10154;SDS011;5118;48.570;7.916;2022-11-15T07:42:31;14.70;;;12.90;;
10154;SDS011;5118;48.570;7.916;2022-11-15T07:45:41;14.87;;;13.37;;
10154;SDS011;5118;48.570;7.916;2022-11-15T07:48:28;13.97;;;12.57;;
10154;SDS011;5118;48.570;7.916;2022-11-15T07:51:28;17.23;;;14.47;;
10154;SDS011;5118;48.570;7.916;2022-11-15T07:54:16;17.33;;;15.23;;
10154;SDS011;5118;48.570;7.916;2022-11-15T07:57:03;14.07;;;12.40;;
10154;SDS011;5118;48.570;7.916;2022-11-15T07:59:52;11.87;;;9.07;;
10154;SDS011;5118;48.570;7.916;2022-11-15T08:02:39;8.67;;;7.87;;
10154;SDS011;5118;48.570;7.916;2022-11-15T08:05:26;8.70;;;7.80;;
10154;SDS011;5118;48.570;7.916;2022-11-15T08:08:13;6.87;;;6.13;;
10154;SDS011;5118;48.570;7.916;2022-11-15T08:11:01;7.90;;;5.63;;
10154;SDS011;5118;48.570;7.916;2022-11-15T08:13:48;5.90;;;5.27;;
10154;SDS011;5118;48.570;7.916;2022-11-15T08:16:35;6.80;;;5.87;;
10154;SDS011;5118;48.570;7.916;2022-11-15T08:19:22;6.83;;;5.40;;
10154;SDS011;5118;48.570;7.916;2022-11-15T08:22:08;8.73;;;6.33;;
10154;SDS011;5118;48.570;7.916;2022-11-15T08:24:56;6.97;;;6.07;;
10154;SDS011;5118;48.570;7.916;2022-11-15T08:27:44;8.00;;;6.50;;
10154;SDS011;5118;48.570;7.916;2022-11-15T08:30:34;6.47;;;5.10;;
10154;SDS011;5118;48.570;7.916;2022-11-15T08:33:22;8.40;;;7.30;;
10154;SDS011;5118;48.570;7.916;2022-11-15T08:36:11;10.70;;;7.40;;
10154;SDS011;5118;48.570;7.916;2022-11-15T08:39:01;10.33;;;9.33;;
10154;SDS011;5118;48.570;7.916;2022-11-15T08:41:48;9.70;;;7.77;;
10154;SDS011;5118;48.570;7.916;2022-11-15T08:44:36;8.63;;;7.07;;
10154;SDS011;5118;48.570;7.916;2022-11-15T08:47:23;16.50;;;14.40;;
10154;SDS011;5118;48.570;7.916;2022-11-15T08:50:11;12.80;;;11.50;;
10154;SDS011;5118;48.570;7.916;2022-11-15T08:52:59;12.87;;;11.40;;
10154;SDS011;5118;48.570;7.916;2022-11-15T08:55:50;7.23;;;6.53;;
10154;SDS011;5118;48.570;7.916;2022-11-15T08:58:37;7.23;;;6.53;;
10154;SDS011;5118;48.570;7.916;2022-11-15T09:01:26;8.17;;;6.27;;
10154;SDS011;5118;48.570;7.916;2022-11-15T09:04:13;7.50;;;6.70;;
10154;SDS011;5118;48.570;7.916;2022-11-15T09:07:01;7.70;;;6.20;;
10154;SDS011;5118;48.570;7.916;2022-11-15T09:09:47;7.87;;;6.03;;
10154;SDS011;5118;48.570;7.916;2022-11-15T09:12:35;8.70;;;7.03;;
10154;SDS011;5118;48.570;7.916;2022-11-15T09:15:22;9.07;;;8.17;;
10154;SDS011;5118;48.570;7.916;2022-11-15T09:18:10;7.43;;;6.40;;
10154;SDS011;5118;48.570;7.916;2022-11-15T09:20:57;6.10;;;5.47;;
10154;SDS011;5118;48.570;7.916;2022-11-15T09:23:44;5.83;;;4.70;;
10154;SDS011;5118;48.570;7.916;2022-11-15T09:26:31;6.60;;;5.47;;
10154;SDS011;5118;48.570;7.916;2022-11-15T09:29:17;9.03;;;6.90;;
10154;SDS011;5118;48.570;7.916;2022-11-15T09:32:04;7.90;;;6.40;;
10154;SDS011;5118;48.570;7.916;2022-11-15T09:34:52;6.33;;;5.30;;
10154;SDS011;5118;48.570;7.916;2022-11-15T09:37:39;6.73;;;4.80;;
10154;SDS011;5118;48.570;7.916;2022-11-15T09:40:26;6.63;;;4.90;;
10154;SDS011;5118;48.570;7.916;2022-11-15T09:43:22;5.17;;;4.67;;
10154;SDS011;5118;48.570;7.916;2022-11-15T09:46:15;6.27;;;5.00;;
10154;SDS011;5118;48.570;7.916;2022-11-15T09:49:10;5.83;;;5.10;;
10154;SDS011;5118;48.570;7.916;2022-11-15T09:52:10;7.83;;;5.57;;
10154;SDS011;5118;48.570;7.916;2022-11-15T09:54:39;5.73;;;5.13;;
10154;SDS011;5118;48.570;7.916;2022-11-15T09:57:21;5.33;;;4.83;;
10154;SDS011;5118;48.570;7.916;2022-11-15T10:00:02;6.17;;;4.60;;
10154;SDS011;5118;48.570;7.916;2022-11-15T10:05:42;4.53;;;4.13;;
10154;SDS011;5118;48.570;7.916;2022-11-15T10:08:24;4.60;;;4.20;;
10154;SDS011;5118;48.570;7.916;2022-11-15T10:11:00;6.27;;;4.50;;
10154;SDS011;5118;48.570;7.916;2022-11-15T10:13:50;6.37;;;5.50;;
10154;SDS011;5118;48.570;7.916;2022-11-15T10:16:33;4.53;;;4.00;;
10154;SDS011;5118;48.570;7.916;2022-11-15T10:19:33;5.33;;;4.20;;
10154;SDS011;5118;48.570;7.916;2022-11-15T10:22:12;4.40;;;4.00;;
10154;SDS011;5118;48.570;7.916;2022-11-15T10:24:52;4.60;;;4.10;;
10154;SDS011;5118;48.570;7.916;2022-11-15T10:27:37;5.33;;;4.83;;
10154;SDS011;5118;48.570;7.916;2022-11-15T10:30:10;5.17;;;4.70;;
10154;SDS011;5118;48.570;7.916;2022-11-15T10:32:40;5.43;;;4.40;;
10154;SDS011;5118;48.570;7.916;2022-11-15T10:35:18;4.77;;;4.37;;
10154;SDS011;5118;48.570;7.916;2022-11-15T10:37:48;5.23;;;4.23;;
10154;SDS011;5118;48.570;7.916;2022-11-15T10:40:20;5.07;;;4.40;;
10154;SDS011;5118;48.570;7.916;2022-11-15T10:43:03;5.37;;;4.50;;
10154;SDS011;5118;48.570;7.916;2022-11-15T10:45:33;4.70;;;4.20;;
10154;SDS011;5118;48.570;7.916;2022-11-15T10:48:18;8.67;;;7.77;;
10154;SDS011;5118;48.570;7.916;2022-11-15T10:50:50;6.73;;;6.03;;
10154;SDS011;5118;48.570;7.916;2022-11-15T10:53:21;7.53;;;6.77;;
10154;SDS011;5118;48.570;7.916;2022-11-15T10:55:56;4.10;;;3.70;;
10154;SDS011;5118;48.570;7.916;2022-11-15T10:58:32;4.80;;;4.30;;
10154;SDS011;5118;48.570;7.916;2022-11-15T11:01:10;5.50;;;5.00;;
10154;SDS011;5118;48.570;7.916;2022-11-15T11:03:40;4.15;;;3.75;;
10154;SDS011;5118;48.570;7.916;2022-11-15T11:06:11;5.03;;;3.83;;
10154;SDS011;5118;48.570;7.916;2022-11-15T11:08:41;5.20;;;4.70;;
10154;SDS011;5118;48.570;7.916;2022-11-15T11:11:24;5.07;;;4.68;;
10154;SDS011;5118;48.570;7.916;2022-11-15T11:13:52;6.00;;;5.50;;
10154;SDS011;5118;48.570;7.916;2022-11-15T11:16:30;4.97;;;4.47;;
10154;SDS011;5118;48.570;7.916;2022-11-15T11:19:33;4.80;;;4.20;;
10154;SDS011;5118;48.570;7.916;2022-11-15T11:22:17;5.00;;;4.55;;
10154;SDS011;5118;48.570;7.916;2022-11-15T11:24:58;5.80;;;4.35;;
10154;SDS011;5118;48.570;7.916;2022-11-15T11:27:39;4.55;;;3.95;;
10154;SDS011;5118;48.570;7.916;2022-11-15T11:30:14;5.80;;;4.20;;
10154;SDS011;5118;48.570;7.916;2022-11-15T11:32:53;3.93;;;3.63;;
10154;SDS011;5118;48.570;7.916;2022-11-15T11:35:32;3.90;;;3.50;;
10154;SDS011;5118;48.570;7.916;2022-11-15T11:38:11;4.57;;;3.50;;
10154;SDS011;5118;48.570;7.916;2022-11-15T11:40:51;4.88;;;4.00;;
10154;SDS011;5118;48.570;7.916;2022-11-15T11:43:30;6.63;;;4.20;;
10154;SDS011;5118;48.570;7.916;2022-11-15T11:46:13;4.23;;;3.83;;
10154;SDS011;5118;48.570;7.916;2022-11-15T11:48:57;4.40;;;3.80;;
10154;SDS011;5118;48.570;7.916;2022-11-15T11:51:32;6.23;;;4.13;;
10154;SDS011;5118;48.570;7.916;2022-11-15T11:54:11;4.97;;;3.93;;
10154;SDS011;5118;48.570;7.916;2022-11-15T11:56:45;3.67;;;3.30;;
10154;SDS011;5118;48.570;7.916;2022-11-15T11:59:17;5.23;;;3.20;;
10154;SDS011;5118;48.570;7.916;2022-11-15T12:01:52;3.67;;;3.37;;
10154;SDS011;5118;48.570;7.916;2022-11-15T12:04:21;3.73;;;3.20;;
10154;SDS011;5118;48.570;7.916;2022-11-15T12:06:57;6.60;;;3.50;;
10154;SDS011;5118;48.570;7.916;2022-11-15T12:09:30;9.27;;;5.17;;
10154;SDS011;5118;48.570;7.916;2022-11-15T12:12:04;8.27;;;4.30;;
10154;SDS011;5118;48.570;7.916;2022-11-15T12:14:43;8.20;;;4.07;;
10154;SDS011;5118;48.570;7.916;2022-11-15T12:17:14;5.97;;;4.60;;
10154;SDS011;5118;48.570;7.916;2022-11-15T12:19:47;3.50;;;3.00;;
10154;SDS011;5118;48.570;7.916;2022-11-15T12:22:17;4.40;;;3.43;;
10154;SDS011;5118;48.570;7.916;2022-11-15T12:24:49;3.30;;;2.90;;
10154;SDS011;5118;48.570;7.916;2022-11-15T12:27:22;3.67;;;3.05;;
10154;SDS011;5118;48.570;7.916;2022-11-15T12:30:00;4.95;;;3.22;;
10154;SDS011;5118;48.570;7.916;2022-11-15T12:32:31;5.25;;;3.90;;
10154;SDS011;5118;48.570;7.916;2022-11-15T12:35:03;4.57;;;2.90;;
10154;SDS011;5118;48.570;7.916;2022-11-15T12:37:48;3.93;;;3.33;;
10154;SDS011;5118;48.570;7.916;2022-11-15T12:40:29;4.00;;;3.10;;
10154;SDS011;5118;48.570;7.916;2022-11-15T12:46:18;6.87;;;5.50;;
10154;SDS011;5118;48.570;7.916;2022-11-15T12:48:53;4.00;;;3.60;;
10154;SDS011;5118;48.570;7.916;2022-11-15T12:54:50;3.50;;;3.20;;
10154;SDS011;5118;48.570;7.916;2022-11-15T12:57:27;4.63;;;3.90;;
10154;SDS011;5118;48.570;7.916;2022-11-15T13:03:26;5.03;;;4.53;;
10154;SDS011;5118;48.570;7.916;2022-11-15T13:06:09;6.80;;;6.10;;
10154;SDS011;5118;48.570;7.916;2022-11-15T13:12:47;8.27;;;7.10;;
10154;SDS011;5118;48.570;7.916;2022-11-15T13:18:28;7.40;;;6.13;;
10154;SDS011;5118;48.570;7.916;2022-11-15T13:21:19;4.27;;;3.87;;
10154;SDS011;5118;48.570;7.916;2022-11-15T13:24:12;5.37;;;4.00;;
10154;SDS011;5118;48.570;7.916;2022-11-15T13:26:43;4.00;;;3.60;;
10154;SDS011;5118;48.570;7.916;2022-11-15T13:29:17;4.07;;;3.67;;
10154;SDS011;5118;48.570;7.916;2022-11-15T13:31:47;4.17;;;3.77;;
10154;SDS011;5118;48.570;7.916;2022-11-15T13:34:24;5.53;;;4.07;;
10154;SDS011;5118;48.570;7.916;2022-11-15T13:37:27;5.50;;;5.00;;
10154;SDS011;5118;48.570;7.916;2022-11-15T13:42:51;10.07;;;8.80;;
10154;SDS011;5118;48.570;7.916;2022-11-15T13:45:21;7.13;;;6.30;;
10154;SDS011;5118;48.570;7.916;2022-11-15T13:47:53;8.33;;;6.23;;
10154;SDS011;5118;48.570;7.916;2022-11-15T13:50:24;8.30;;;6.03;;
10154;SDS011;5118;48.570;7.916;2022-11-15T13:52:56;6.87;;;6.00;;
10154;SDS011;5118;48.570;7.916;2022-11-15T13:55:29;5.57;;;5.07;;
10154;SDS011;5118;48.570;7.916;2022-11-15T13:58:00;6.00;;;5.20;;
10154;SDS011;5118;48.570;7.916;2022-11-15T14:00:35;5.37;;;4.87;;
10154;SDS011;5118;48.570;7.916;2022-11-15T14:03:12;5.97;;;5.33;;
10154;SDS011;5118;48.570;7.916;2022-11-15T14:05:46;6.10;;;5.50;;
10154;SDS011;5118;48.570;7.916;2022-11-15T14:08:33;5.17;;;4.20;;
10154;SDS011;5118;48.570;7.916;2022-11-15T14:11:06;5.07;;;4.57;;
10154;SDS011;5118;48.570;7.916;2022-11-15T14:13:37;5.90;;;5.30;;
10154;SDS011;5118;48.570;7.916;2022-11-15T14:16:17;6.70;;;5.43;;
10154;SDS011;5118;48.570;7.916;2022-11-15T14:18:49;6.80;;;5.00;;
10154;SDS011;5118;48.570;7.916;2022-11-15T14:21:19;5.80;;;5.00;;
10154;SDS011;5118;48.570;7.916;2022-11-15T14:23:48;6.83;;;5.70;;
10154;SDS011;5118;48.570;7.916;2022-11-15T14:26:27;9.57;;;8.67;;
10154;SDS011;5118;48.570;7.916;2022-11-15T14:28:57;8.40;;;7.50;;
10154;SDS011;5118;48.570;7.916;2022-11-15T14:31:54;6.60;;;5.60;;
10154;SDS011;5118;48.570;7.916;2022-11-15T14:34:40;6.63;;;5.90;;
10154;SDS011;5118;48.570;7.916;2022-11-15T14:37:11;6.27;;;5.67;;
10154;SDS011;5118;48.570;7.916;2022-11-15T14:39:49;6.30;;;5.00;;
10154;SDS011;5118;48.570;7.916;2022-11-15T14:42:18;6.47;;;5.87;;
10154;SDS011;5118;48.570;7.916;2022-11-15T14:44:48;13.53;;;12.20;;
10154;SDS011;5118;48.570;7.916;2022-11-15T14:47:18;10.23;;;9.13;;
10154;SDS011;5118;48.570;7.916;2022-11-15T14:49:48;9.47;;;8.43;;
10154;SDS011;5118;48.570;7.916;2022-11-15T14:52:24;8.60;;;7.80;;
10154;SDS011;5118;48.570;7.916;2022-11-15T14:54:59;7.90;;;6.10;;
10154;SDS011;5118;48.570;7.916;2022-11-15T14:57:29;8.77;;;7.07;;
10154;SDS011;5118;48.570;7.916;2022-11-15T14:59:58;9.97;;;7.17;;
10154;SDS011;5118;48.570;7.916;2022-11-15T15:02:39;12.20;;;10.73;;
10154;SDS011;5118;48.570;7.916;2022-11-15T15:05:12;17.07;;;15.37;;
10154;SDS011;5118;48.570;7.916;2022-11-15T15:07:43;12.37;;;11.23;;
10154;SDS011;5118;48.570;7.916;2022-11-15T15:10:12;11.37;;;10.10;;
10154;SDS011;5118;48.570;7.916;2022-11-15T15:13:01;11.73;;;10.43;;
10154;SDS011;5118;48.570;7.916;2022-11-15T15:15:31;11.77;;;10.20;;
10154;SDS011;5118;48.570;7.916;2022-11-15T15:18:04;11.97;;;10.87;;
10154;SDS011;5118;48.570;7.916;2022-11-15T15:20:34;12.27;;;11.07;;
10154;SDS011;5118;48.570;7.916;2022-11-15T15:23:07;12.00;;;10.70;;
10154;SDS011;5118;48.570;7.916;2022-11-15T15:25:42;12.37;;;11.10;;
10154;SDS011;5118;48.570;7.916;2022-11-15T15:28:12;12.60;;;11.33;;
10154;SDS011;5118;48.570;7.916;2022-11-15T15:30:40;23.63;;;17.47;;
10154;SDS011;5118;48.570;7.916;2022-11-15T15:33:11;19.93;;;15.87;;
10154;SDS011;5118;48.570;7.916;2022-11-15T15:35:39;24.80;;;19.17;;
10154;SDS011;5118;48.570;7.916;2022-11-15T15:38:08;21.70;;;16.47;;
10154;SDS011;5118;48.570;7.916;2022-11-15T15:40:39;22.00;;;16.67;;
10154;SDS011;5118;48.570;7.916;2022-11-15T15:43:09;19.23;;;15.87;;
10154;SDS011;5118;48.570;7.916;2022-11-15T15:45:38;24.73;;;21.90;;
10154;SDS011;5118;48.570;7.916;2022-11-15T15:48:11;24.07;;;20.67;;
10154;SDS011;5118;48.570;7.916;2022-11-15T15:50:41;10.80;;;9.70;;
10154;SDS011;5118;48.570;7.916;2022-11-15T15:53:10;11.33;;;10.23;;
10154;SDS011;5118;48.570;7.916;2022-11-15T15:55:40;10.73;;;7.50;;
10154;SDS011;5118;48.570;7.916;2022-11-15T15:58:08;8.80;;;7.17;;
10154;SDS011;5118;48.570;7.916;2022-11-15T16:00:36;7.37;;;6.63;;
10154;SDS011;5118;48.570;7.916;2022-11-15T16:03:05;12.27;;;11.20;;
10154;SDS011;5118;48.570;7.916;2022-11-15T16:05:35;18.37;;;16.67;;
10154;SDS011;5118;48.570;7.916;2022-11-15T16:08:03;16.40;;;15.00;;
10154;SDS011;5118;48.570;7.916;2022-11-15T16:10:33;24.63;;;22.30;;
10154;SDS011;5118;48.570;7.916;2022-11-15T16:13:03;29.53;;;26.57;;
10154;SDS011;5118;48.570;7.916;2022-11-15T16:15:31;20.63;;;18.67;;
10154;SDS011;5118;48.570;7.916;2022-11-15T16:18:00;16.77;;;15.27;;
10154;SDS011;5118;48.570;7.916;2022-11-15T16:20:31;16.37;;;14.97;;
10154;SDS011;5118;48.570;7.916;2022-11-15T16:23:03;11.33;;;10.27;;
10154;SDS011;5118;48.570;7.916;2022-11-15T16:25:39;10.90;;;9.83;;
10154;SDS011;5118;48.570;7.916;2022-11-15T16:28:16;7.60;;;6.80;;
10154;SDS011;5118;48.570;7.916;2022-11-15T16:30:46;12.03;;;10.70;;
10154;SDS011;5118;48.570;7.916;2022-11-15T16:33:22;14.60;;;13.07;;
10154;SDS011;5118;48.570;7.916;2022-11-15T16:35:51;14.23;;;12.73;;
10154;SDS011;5118;48.570;7.916;2022-11-15T16:38:20;12.80;;;10.30;;
10154;SDS011;5118;48.570;7.916;2022-11-15T16:40:49;16.10;;;14.60;;
10154;SDS011;5118;48.570;7.916;2022-11-15T16:43:17;14.17;;;12.77;;
10154;SDS011;5118;48.570;7.916;2022-11-15T16:45:46;17.00;;;15.40;;
10154;SDS011;5118;48.570;7.916;2022-11-15T16:48:18;7.37;;;6.67;;
10154;SDS011;5118;48.570;7.916;2022-11-15T16:50:51;9.00;;;8.13;;
10154;SDS011;5118;48.570;7.916;2022-11-15T16:53:23;9.10;;;8.10;;
10154;SDS011;5118;48.570;7.916;2022-11-15T16:55:53;9.90;;;8.90;;
10154;SDS011;5118;48.570;7.916;2022-11-15T16:58:22;11.40;;;10.23;;